Time;durP1;ratioP1;P1;durP2;ratioP2;P2;SDS_P1;SDS_P2;PMS_P1;PMS_P2;Temp;Humidity;BMP_temperature;BMP_pressure;BME280_temperature;BME280_humidity;BME280_pressure;Samples;Min_cycle;Max_cycle;Signal;HPM_P1;HPM_P2
2022/04/29 00:00:01;;;;;;;10.80;7.28;;;;;;;;;;4984820;28;20042;-71
2022/04/29 00:02:27;;;;;;;11.02;6.90;;;;;;;;;;4985603;28;20042;-71
2022/04/29 00:04:52;;;;;;;9.52;6.70;;;;;;;;;;4986254;28;20034;-71
2022/04/29 00:07:17;;;;;;;8.45;6.40;;;;;;;;;;4984267;28;20038;-71
2022/04/29 00:09:43;;;;;;;8.18;6.10;;;;;;;;;;4982867;28;20109;-71
2022/04/29 00:12:09;;;;;;;8.57;6.32;;;;;;;;;;4984222;28;20294;-71
2022/04/29 00:14:34;;;;;;;11.45;6.63;;;;;;;;;;4984532;28;20038;-71
2022/04/29 00:17:00;;;;;;;7.13;6.00;;;;;;;;;;4984264;28;20042;-71
2022/04/29 00:19:26;;;;;;;8.57;6.80;;;;;;;;;;4984044;28;20030;-70
2022/04/29 00:21:52;;;;;;;8.23;6.30;;;;;;;;;;4985758;28;20038;-70
2022/04/29 00:24:17;;;;;;;7.70;6.05;;;;;;;;;;4984052;28;20080;-70
2022/04/29 00:26:43;;;;;;;10.30;5.63;;;;;;;;;;4984036;28;20042;-71
2022/04/29 00:29:09;;;;;;;7.55;6.15;;;;;;;;;;4966598;28;20034;-70
2022/04/29 00:31:38;;;;;;;13.40;6.53;;;;;;;;;;4983646;28;20032;-70
2022/04/29 00:34:04;;;;;;;9.20;6.78;;;;;;;;;;4984061;28;20038;-71
2022/04/29 00:36:29;;;;;;;10.80;6.90;;;;;;;;;;4967077;28;20112;-71
2022/04/29 00:38:55;;;;;;;10.00;6.97;;;;;;;;;;4983906;28;20102;-70
2022/04/29 00:41:24;;;;;;;10.15;7.15;;;;;;;;;;4984313;28;20046;-70
2022/04/29 00:44:05;;;;;;;10.93;7.03;;;;;;;;;;4983456;28;20030;-71
2022/04/29 00:46:36;;;;;;;9.35;6.72;;;;;;;;;;4966087;28;20038;-71
2022/04/29 00:49:04;;;;;;;7.15;6.15;;;;;;;;;;4983504;28;20088;-71
2022/04/29 00:51:30;;;;;;;11.25;6.35;;;;;;;;;;4983960;28;20038;-71
2022/04/29 00:53:57;;;;;;;10.05;6.63;;;;;;;;;;4974258;28;20038;-71
2022/04/29 00:56:23;;;;;;;10.23;6.55;;;;;;;;;;4983565;28;20519;-70
2022/04/29 00:58:57;;;;;;;7.38;6.32;;;;;;;;;;4983445;28;20038;-71
2022/04/29 01:01:24;;;;;;;7.13;5.60;;;;;;;;;;4983744;28;20053;-70
2022/04/29 01:03:52;;;;;;;9.82;6.25;;;;;;;;;;4966081;28;20040;-70
2022/04/29 01:06:17;;;;;;;8.55;6.45;;;;;;;;;;4982453;28;20034;-71
2022/04/29 01:08:43;;;;;;;8.38;6.50;;;;;;;;;;4982269;28;20050;-70
2022/04/29 01:11:08;;;;;;;9.63;6.68;;;;;;;;;;4965654;28;20034;-70
2022/04/29 01:13:35;;;;;;;12.50;6.53;;;;;;;;;;4965047;28;20030;-69
2022/04/29 01:16:00;;;;;;;9.40;6.70;;;;;;;;;;4981842;28;20034;-70
2022/04/29 01:18:27;;;;;;;9.52;6.55;;;;;;;;;;4981917;28;20052;-70
2022/04/29 01:21:06;;;;;;;9.10;6.43;;;;;;;;;;4964963;28;20073;-69
2022/04/29 01:23:32;;;;;;;12.13;5.75;;;;;;;;;;4982409;28;20066;-70
2022/04/29 01:25:58;;;;;;;7.45;6.40;;;;;;;;;;4982933;28;20121;-70
2022/04/29 01:28:24;;;;;;;6.70;6.00;;;;;;;;;;4981361;28;20060;-69
2022/04/29 01:30:52;;;;;;;6.57;5.78;;;;;;;;;;4964895;28;20038;-70
2022/04/29 01:33:18;;;;;;;9.93;6.00;;;;;;;;;;4965324;28;20092;-70
2022/04/29 01:35:45;;;;;;;7.45;5.97;;;;;;;;;;4964869;28;20042;-70
2022/04/29 01:38:14;;;;;;;8.90;6.38;;;;;;;;;;4963766;28;20034;-70
2022/04/29 01:40:39;;;;;;;9.10;6.55;;;;;;;;;;4965209;28;20053;-70
2022/04/29 01:43:11;;;;;;;8.50;6.32;;;;;;;;;;4959524;28;20037;-71
2022/04/29 01:45:37;;;;;;;10.88;6.80;;;;;;;;;;4964236;28;20034;-70
2022/04/29 01:48:25;;;;;;;8.55;6.30;;;;;;;;;;4980409;28;20423;-70
2022/04/29 01:51:09;;;;;;;10.77;6.68;;;;;;;;;;4965214;28;20053;-69
2022/04/29 01:53:37;;;;;;;7.82;6.47;;;;;;;;;;4965079;28;20105;-70
2022/04/29 01:56:03;;;;;;;6.57;5.93;;;;;;;;;;4964966;28;20038;-70
2022/04/29 01:58:29;;;;;;;7.55;6.43;;;;;;;;;;4964622;28;20049;-69
2022/04/29 02:00:54;;;;;;;8.07;6.28;;;;;;;;;;4963952;28;20057;-70
2022/04/29 02:03:20;;;;;;;8.05;6.38;;;;;;;;;;4964833;28;20034;-70
2022/04/29 02:05:47;;;;;;;10.50;6.38;;;;;;;;;;4964498;28;20405;-69
2022/04/29 02:08:13;;;;;;;10.35;7.18;;;;;;;;;;4982019;28;20403;-70
2022/04/29 02:10:43;;;;;;;7.45;6.25;;;;;;;;;;4963976;28;20030;-70
2022/04/29 02:13:13;;;;;;;9.63;6.72;;;;;;;;;;4964912;28;20038;-70
2022/04/29 02:15:46;;;;;;;6.90;6.20;;;;;;;;;;4964017;28;20041;-70
2022/04/29 02:18:13;;;;;;;9.10;5.93;;;;;;;;;;4963761;28;20042;-70
2022/04/29 02:20:40;;;;;;;11.35;6.60;;;;;;;;;;4964829;28;20046;-70
2022/04/29 02:23:05;;;;;;;11.13;6.65;;;;;;;;;;4963796;28;20045;-70
2022/04/29 02:25:31;;;;;;;9.07;6.97;;;;;;;;;;4964855;28;20042;-70
2022/04/29 02:27:56;;;;;;;8.30;6.28;;;;;;;;;;4981152;28;20034;-70
2022/04/29 02:30:22;;;;;;;8.25;6.70;;;;;;;;;;4964165;28;20069;-70
2022/04/29 02:32:47;;;;;;;9.15;6.82;;;;;;;;;;4963402;28;20891;-70
2022/04/29 02:35:14;;;;;;;10.07;6.53;;;;;;;;;;4964614;28;20480;-70
2022/04/29 02:37:40;;;;;;;8.48;6.97;;;;;;;;;;4963646;28;20388;-70
2022/04/29 02:40:06;;;;;;;10.82;7.00;;;;;;;;;;4964584;28;20832;-69
2022/04/29 02:42:32;;;;;;;9.93;7.05;;;;;;;;;;4964506;28;20126;-70
2022/04/29 02:44:57;;;;;;;8.90;6.97;;;;;;;;;;4981090;28;20109;-71
2022/04/29 02:47:27;;;;;;;7.70;6.57;;;;;;;;;;4964158;28;20042;-70
2022/04/29 02:49:53;;;;;;;10.15;6.22;;;;;;;;;;4963955;28;20181;-69
2022/04/29 02:52:18;;;;;;;9.57;7.18;;;;;;;;;;4964324;28;20049;-69
2022/04/29 02:54:44;;;;;;;9.82;6.63;;;;;;;;;;4963300;28;20034;-69
2022/04/29 02:57:35;;;;;;;11.43;7.63;;;;;;;;;;4969985;28;20049;-70
2022/04/29 03:00:01;;;;;;;9.27;7.28;;;;;;;;;;4964178;28;20038;-70
2022/04/29 03:02:27;;;;;;;9.43;6.97;;;;;;;;;;4981709;28;20030;-70
2022/04/29 03:04:52;;;;;;;8.07;6.65;;;;;;;;;;4963754;28;20031;-70
2022/04/29 03:07:18;;;;;;;10.52;7.38;;;;;;;;;;4963198;28;20037;-70
2022/04/29 03:09:53;;;;;;;8.00;7.18;;;;;;;;;;4981170;28;20418;-70
2022/04/29 03:12:23;;;;;;;8.98;6.85;;;;;;;;;;4963570;28;20077;-70
2022/04/29 03:14:53;;;;;;;9.13;7.07;;;;;;;;;;4963794;28;20043;-70
2022/04/29 03:20:04;;;;;;;10.18;6.80;;;;;;;;;;4963836;28;20116;-70
2022/04/29 03:22:30;;;;;;;15.32;6.68;;;;;;;;;;4964273;28;20089;-68
2022/04/29 03:24:56;;;;;;;12.80;7.07;;;;;;;;;;4981481;28;20853;-71
2022/04/29 03:27:22;;;;;;;9.85;7.13;;;;;;;;;;4962232;28;20050;-70
2022/04/29 03:29:48;;;;;;;13.23;7.38;;;;;;;;;;4963127;28;20040;-71
2022/04/29 03:32:13;;;;;;;8.57;7.30;;;;;;;;;;4963776;28;20152;-70
2022/04/29 03:34:57;;;;;;;10.73;8.02;;;;;;;;;;4963854;28;20042;-71
2022/04/29 03:37:23;;;;;;;9.77;8.02;;;;;;;;;;4962709;28;20042;-71
2022/04/29 03:39:48;;;;;;;10.70;8.10;;;;;;;;;;4963593;28;20039;-71
2022/04/29 03:42:14;;;;;;;10.57;8.07;;;;;;;;;;4963629;28;20535;-70
2022/04/29 03:44:40;;;;;;;10.57;8.15;;;;;;;;;;4962842;28;20030;-70
2022/04/29 03:47:06;;;;;;;9.80;8.10;;;;;;;;;;4984968;28;20045;-71
2022/04/29 03:49:52;;;;;;;10.25;7.65;;;;;;;;;;4983339;28;20073;-71
2022/04/29 03:52:19;;;;;;;10.63;7.88;;;;;;;;;;4984296;28;20121;-70
2022/04/29 03:54:45;;;;;;;12.63;7.85;;;;;;;;;;4980560;28;20034;-70
2022/04/29 03:57:11;;;;;;;11.75;7.80;;;;;;;;;;4967064;28;20129;-69
2022/04/29 03:59:37;;;;;;;10.10;7.78;;;;;;;;;;4965416;28;20113;-71
2022/04/29 04:02:04;;;;;;;9.75;7.35;;;;;;;;;;4966667;28;20135;-70
2022/04/29 04:04:30;;;;;;;8.00;6.53;;;;;;;;;;4966679;28;20101;-70
2022/04/29 04:07:01;;;;;;;8.50;6.75;;;;;;;;;;4966546;28;20030;-69
2022/04/29 04:09:47;;;;;;;10.30;6.63;;;;;;;;;;4982896;28;20082;-70
2022/04/29 04:12:12;;;;;;;12.25;6.03;;;;;;;;;;4965873;28;20119;-70
2022/04/29 04:14:51;;;;;;;6.95;5.35;;;;;;;;;;4984109;28;20038;-70
2022/04/29 04:17:17;;;;;;;7.47;6.68;;;;;;;;;;4966406;28;20038;-70
2022/04/29 04:19:42;;;;;;;9.02;5.70;;;;;;;;;;4966361;28;20042;-69
2022/04/29 04:22:08;;;;;;;6.82;5.25;;;;;;;;;;4966331;28;20033;-69
2022/04/29 04:24:34;;;;;;;16.85;6.00;;;;;;;;;;4966244;28;20030;-70
2022/04/29 04:26:59;;;;;;;7.10;5.65;;;;;;;;;;4984132;28;20058;-69
2022/04/29 04:29:25;;;;;;;7.43;5.88;;;;;;;;;;4983567;28;20029;-69
2022/04/29 04:31:52;;;;;;;7.85;6.10;;;;;;;;;;4966751;28;20427;-70
2022/04/29 04:37:03;;;;;;;7.07;5.82;;;;;;;;;;4966395;28;20187;-70
2022/04/29 04:39:29;;;;;;;5.18;4.43;;;;;;;;;;4965688;28;20506;-70
2022/04/29 04:42:01;;;;;;;8.48;5.10;;;;;;;;;;4966177;28;20057;-69
2022/04/29 04:44:42;;;;;;;8.00;6.13;;;;;;;;;;4965226;28;20118;-70
2022/04/29 04:47:09;;;;;;;11.45;6.03;;;;;;;;;;4965811;28;20062;-69
2022/04/29 04:49:55;;;;;;;9.15;5.63;;;;;;;;;;4983070;28;20088;-70
2022/04/29 04:52:24;;;;;;;9.70;6.25;;;;;;;;;;4965902;28;20038;-70
2022/04/29 04:54:49;;;;;;;7.85;6.25;;;;;;;;;;4965041;28;20034;-70
2022/04/29 04:57:15;;;;;;;12.73;6.82;;;;;;;;;;4965470;28;20030;-71
2022/04/29 04:59:41;;;;;;;8.40;6.05;;;;;;;;;;4965493;28;20514;-70
2022/04/29 05:02:07;;;;;;;8.32;5.93;;;;;;;;;;4980800;28;20034;-70
2022/04/29 05:04:51;;;;;;;9.32;6.03;;;;;;;;;;4983084;28;20049;-70
2022/04/29 05:07:42;;;;;;;7.57;6.30;;;;;;;;;;4978561;28;21016;-70
2022/04/29 05:10:09;;;;;;;9.68;5.57;;;;;;;;;;4965315;28;20292;-69
2022/04/29 05:12:44;;;;;;;5.28;4.22;;;;;;;;;;4966104;28;20035;-70
2022/04/29 05:15:32;;;;;;;4.70;4.30;;;;;;;;;;4975609;28;20049;-70
2022/04/29 05:17:59;;;;;;;10.38;3.90;;;;;;;;;;4960118;28;20038;-71
2022/04/29 05:20:43;;;;;;;5.80;4.07;;;;;;;;;;4962106;28;20092;-70
2022/04/29 05:23:08;;;;;;;7.38;4.10;;;;;;;;;;4964587;28;20450;-70
2022/04/29 05:25:53;;;;;;;4.35;3.72;;;;;;;;;;4964687;28;20031;-71
2022/04/29 05:28:57;;;;;;;4.10;3.70;;;;;;;;;;4979259;28;20424;-70
2022/04/29 05:31:41;;;;;;;5.10;3.45;;;;;;;;;;4978505;28;20054;-70
2022/04/29 05:34:24;;;;;;;3.80;3.40;;;;;;;;;;4980514;28;20087;-69
2022/04/29 05:37:09;;;;;;;5.50;3.53;;;;;;;;;;4981158;28;20108;-69
2022/04/29 05:46:24;;;;;;;4.72;3.65;;;;;;;;;;4982462;28;20077;-69
2022/04/29 05:48:50;;;;;;;7.63;3.53;;;;;;;;;;4982695;28;20070;-69
2022/04/29 05:51:16;;;;;;;4.00;3.58;;;;;;;;;;4963853;28;20045;-70
2022/04/29 05:53:41;;;;;;;3.95;3.55;;;;;;;;;;4964921;28;20038;-70
2022/04/29 05:56:07;;;;;;;12.82;3.72;;;;;;;;;;4964611;28;20380;-69
2022/04/29 05:58:33;;;;;;;5.25;3.40;;;;;;;;;;4980344;28;20538;-69
2022/04/29 06:01:24;;;;;;;4.27;3.87;;;;;;;;;;4965811;28;20443;-69
2022/04/29 06:03:51;;;;;;;4.35;3.60;;;;;;;;;;4964814;28;20070;-70
2022/04/29 06:06:17;;;;;;;4.30;3.80;;;;;;;;;;4964253;28;20030;-70
2022/04/29 06:08:44;;;;;;;4.10;3.65;;;;;;;;;;4963419;28;20072;-69
2022/04/29 06:11:09;;;;;;;4.32;3.92;;;;;;;;;;4963739;28;20053;-69
2022/04/29 06:13:37;;;;;;;5.55;3.95;;;;;;;;;;4964214;28;20030;-69
2022/04/29 06:16:22;;;;;;;4.60;4.20;;;;;;;;;;4981909;28;20686;-69
2022/04/29 06:19:26;;;;;;;4.90;3.88;;;;;;;;;;4980861;28;20526;-69
2022/04/29 06:22:23;;;;;;;5.65;4.15;;;;;;;;;;4981133;28;20057;-69
2022/04/29 06:24:50;;;;;;;8.88;4.35;;;;;;;;;;4964707;28;20030;-69
2022/04/29 06:27:16;;;;;;;9.85;4.40;;;;;;;;;;4964632;28;20784;-69
2022/04/29 06:29:42;;;;;;;6.00;3.90;;;;;;;;;;4963943;28;20146;-69
2022/04/29 06:32:08;;;;;;;8.32;4.55;;;;;;;;;;4964316;28;20188;-69
2022/04/29 06:34:52;;;;;;;4.90;4.10;;;;;;;;;;4980265;28;20053;-69
2022/04/29 06:37:20;;;;;;;7.07;3.90;;;;;;;;;;4964175;28;20034;-69
2022/04/29 06:39:56;;;;;;;4.80;3.83;;;;;;;;;;4964006;28;20045;-69
2022/04/29 06:42:47;;;;;;;5.70;3.80;;;;;;;;;;4964592;28;20084;-69
2022/04/29 06:45:31;;;;;;;3.67;3.38;;;;;;;;;;4980554;28;20048;-69
2022/04/29 06:48:15;;;;;;;7.13;3.70;;;;;;;;;;4981124;28;20052;-69
2022/04/29 06:51:19;;;;;;;5.93;4.03;;;;;;;;;;4940333;29;20532;-68
2022/04/29 06:53:53;;;;;;;4.65;3.67;;;;;;;;;;4924659;29;20039;-69
2022/04/29 06:56:25;;;;;;;4.68;3.70;;;;;;;;;;4945447;28;20047;-69
2022/04/29 06:58:51;;;;;;;4.85;3.85;;;;;;;;;;4963323;28;20045;-69
2022/04/29 07:01:16;;;;;;;10.02;4.15;;;;;;;;;;4963857;28;20034;-69
2022/04/29 07:03:43;;;;;;;4.25;3.85;;;;;;;;;;4982090;28;20313;-68
2022/04/29 07:06:09;;;;;;;5.13;3.92;;;;;;;;;;4980741;28;20038;-68
2022/04/29 07:08:35;;;;;;;8.02;4.35;;;;;;;;;;4962435;28;20100;-68
2022/04/29 07:11:56;;;;;;;5.65;3.92;;;;;;;;;;4983914;28;20129;-68
2022/04/29 07:14:27;;;;;;;5.70;3.78;;;;;;;;;;4963780;28;20113;-68
2022/04/29 07:20:03;;;;;;;7.20;4.13;;;;;;;;;;4941454;28;20555;-69
2022/04/29 07:22:30;;;;;;;4.70;4.07;;;;;;;;;;4928904;29;20043;-68
2022/04/29 07:24:57;;;;;;;4.20;3.70;;;;;;;;;;4944713;28;20031;-69
2022/04/29 07:27:23;;;;;;;5.13;3.50;;;;;;;;;;4928551;28;20063;-69
2022/04/29 07:29:50;;;;;;;3.80;3.40;;;;;;;;;;4927964;29;20046;-69
2022/04/29 07:32:21;;;;;;;4.07;3.15;;;;;;;;;;4928688;29;20039;-69
2022/04/29 07:43:35;;;;;;;4.05;3.65;;;;;;;;;;4926231;29;20097;-69
2022/04/29 07:46:01;;;;;;;6.68;3.30;;;;;;;;;;4928144;29;20444;-68
2022/04/29 07:48:47;;;;;;;4.28;3.20;;;;;;;;;;4945195;28;20051;-69
2022/04/29 07:51:13;;;;;;;4.45;3.53;;;;;;;;;;4945358;29;20118;-68
2022/04/29 07:53:38;;;;;;;5.38;3.58;;;;;;;;;;4927324;29;20038;-68
2022/04/29 07:56:05;;;;;;;5.70;3.67;;;;;;;;;;4926880;29;20057;-68
2022/04/29 07:58:34;;;;;;;5.70;3.55;;;;;;;;;;4928046;29;20174;-68
2022/04/29 08:01:00;;;;;;;6.65;3.85;;;;;;;;;;4928378;29;20413;-69
2022/04/29 08:03:27;;;;;;;5.18;3.70;;;;;;;;;;4927789;29;20906;-68
2022/04/29 08:05:56;;;;;;;4.57;3.80;;;;;;;;;;4928171;29;20039;-69
2022/04/29 08:08:22;;;;;;;6.22;3.40;;;;;;;;;;4927890;29;20050;-69
2022/04/29 08:11:26;;;;;;;3.60;3.30;;;;;;;;;;4928925;29;20027;-69
2022/04/29 08:14:10;;;;;;;6.50;3.65;;;;;;;;;;4944668;29;20111;-69
2022/04/29 08:16:58;;;;;;;4.55;3.70;;;;;;;;;;4945128;29;20188;-69
2022/04/29 08:19:30;;;;;;;5.78;3.63;;;;;;;;;;4927467;29;20043;-67
2022/04/29 08:22:04;;;;;;;4.60;3.90;;;;;;;;;;4945077;29;20062;-68
2022/04/29 08:24:30;;;;;;;4.90;3.33;;;;;;;;;;4927026;29;20130;-68
2022/04/29 08:26:55;;;;;;;10.05;4.38;;;;;;;;;;4927877;29;20058;-69
2022/04/29 08:29:21;;;;;;;7.70;3.70;;;;;;;;;;4944703;28;20081;-69
2022/04/29 08:31:48;;;;;;;6.82;3.53;;;;;;;;;;4927226;29;20039;-68
2022/04/29 08:34:17;;;;;;;4.32;3.45;;;;;;;;;;4926798;29;20116;-69
2022/04/29 08:36:44;;;;;;;4.03;3.50;;;;;;;;;;4927581;29;20043;-69
2022/04/29 08:39:09;;;;;;;7.70;3.53;;;;;;;;;;4944553;28;20035;-69
2022/04/29 08:41:38;;;;;;;5.00;3.40;;;;;;;;;;4927306;29;20039;-69
2022/04/29 08:44:08;;;;;;;3.72;3.42;;;;;;;;;;4927436;29;20043;-69
2022/04/29 08:46:50;;;;;;;6.03;4.13;;;;;;;;;;4926667;29;20035;-68
2022/04/29 08:49:31;;;;;;;4.30;3.50;;;;;;;;;;4927202;29;20046;-69
2022/04/29 08:51:56;;;;;;;5.68;3.75;;;;;;;;;;4944471;29;20110;-68
2022/04/29 09:00:04;;;;;;;4.78;3.47;;;;;;;;;;4944106;29;20058;-68
2022/04/29 09:02:38;;;;;;;5.88;3.47;;;;;;;;;;4927193;29;20046;-68
2022/04/29 09:05:07;;;;;;;5.18;3.08;;;;;;;;;;4944439;29;20480;-69
2022/04/29 09:07:52;;;;;;;3.85;3.10;;;;;;;;;;4943274;28;20059;-69
2022/04/29 09:10:19;;;;;;;3.80;3.03;;;;;;;;;;4943434;29;20714;-69
2022/04/29 09:12:44;;;;;;;3.50;2.70;;;;;;;;;;4944460;29;20050;-69
2022/04/29 09:15:12;;;;;;;3.47;3.05;;;;;;;;;;4941148;29;20043;-69
2022/04/29 09:17:42;;;;;;;6.15;3.42;;;;;;;;;;4944222;28;20476;-69
2022/04/29 09:20:24;;;;;;;5.85;2.90;;;;;;;;;;4942759;29;20416;-69
2022/04/29 09:22:50;;;;;;;4.53;3.10;;;;;;;;;;4944170;29;20105;-69
2022/04/29 09:25:38;;;;;;;4.10;3.15;;;;;;;;;;4942002;29;20050;-69
2022/04/29 09:28:27;;;;;;;4.20;3.20;;;;;;;;;;4937861;28;20084;-68
2022/04/29 09:31:14;;;;;;;6.40;3.47;;;;;;;;;;4936357;29;20122;-69
2022/04/29 09:33:54;;;;;;;3.55;2.88;;;;;;;;;;4943799;29;20070;-68
2022/04/29 09:37:13;;;;;;;5.78;3.42;;;;;;;;;;4935856;29;20058;-70
2022/04/29 09:40:05;;;;;;;4.25;3.15;;;;;;;;;;4943500;29;20090;-69
2022/04/29 09:42:42;;;;;;;4.13;2.90;;;;;;;;;;4942172;28;20126;-69
2022/04/29 09:45:17;;;;;;;6.75;3.00;;;;;;;;;;4926382;29;20805;-69
2022/04/29 09:47:43;;;;;;;6.50;2.90;;;;;;;;;;4940781;28;20042;-70
2022/04/29 09:50:08;;;;;;;7.15;2.88;;;;;;;;;;4943084;29;20046;-69
2022/04/29 09:52:43;;;;;;;3.08;2.67;;;;;;;;;;4942686;29;20134;-69
2022/04/29 09:55:14;;;;;;;4.43;2.67;;;;;;;;;;4943594;29;20090;-70
2022/04/29 09:58:09;;;;;;;7.70;2.90;;;;;;;;;;4943349;28;20035;-69
2022/04/29 10:00:35;;;;;;;4.43;3.13;;;;;;;;;;4930467;29;20063;-69
2022/04/29 10:03:03;;;;;;;3.92;2.80;;;;;;;;;;4942802;29;20051;-70
2022/04/29 10:05:31;;;;;;;7.10;2.92;;;;;;;;;;4926016;29;20031;-69
2022/04/29 10:08:04;;;;;;;8.25;2.97;;;;;;;;;;4926628;29;20404;-69
2022/04/29 10:10:30;;;;;;;2.90;2.60;;;;;;;;;;4942727;29;20516;-69
2022/04/29 10:12:56;;;;;;;4.25;2.85;;;;;;;;;;4943864;29;20049;-69
2022/04/29 10:15:48;;;;;;;4.30;2.60;;;;;;;;;;4942832;29;20079;-69
2022/04/29 10:22:25;;;;;;;2.97;2.67;;;;;;;;;;4943265;29;20086;-69
2022/04/29 10:24:51;;;;;;;5.65;2.60;;;;;;;;;;4925369;29;20211;-69
2022/04/29 10:27:18;;;;;;;10.65;3.63;;;;;;;;;;4943094;28;20775;-69
2022/04/29 10:29:44;;;;;;;4.70;2.97;;;;;;;;;;4942208;29;20047;-69
2022/04/29 10:32:10;;;;;;;6.55;2.72;;;;;;;;;;4926738;29;20035;-68
2022/04/29 10:34:36;;;;;;;3.33;2.70;;;;;;;;;;4942746;29;20038;-68
2022/04/29 10:37:14;;;;;;;5.57;3.10;;;;;;;;;;4925303;29;20063;-69
2022/04/29 10:39:42;;;;;;;5.50;2.95;;;;;;;;;;4942585;29;20893;-69
2022/04/29 10:42:11;;;;;;;3.10;2.75;;;;;;;;;;4926012;29;20047;-68
2022/04/29 10:45:00;;;;;;;3.28;2.88;;;;;;;;;;4925843;29;20084;-69
2022/04/29 10:47:41;;;;;;;4.60;2.72;;;;;;;;;;4941828;28;20142;-69
2022/04/29 10:50:37;;;;;;;3.45;2.72;;;;;;;;;;4925238;29;20118;-68
2022/04/29 10:53:24;;;;;;;2.60;2.25;;;;;;;;;;4943003;28;20093;-69
2022/04/29 10:56:31;;;;;;;3.10;2.80;;;;;;;;;;4928231;29;20503;-69
2022/04/29 10:59:03;;;;;;;4.20;3.45;;;;;;;;;;4944489;28;20054;-69
2022/04/29 11:01:33;;;;;;;3.40;2.72;;;;;;;;;;4944250;29;20055;-69
2022/04/29 11:03:59;;;;;;;3.63;2.70;;;;;;;;;;4944972;28;20039;-69
2022/04/29 11:06:46;;;;;;;4.90;3.08;;;;;;;;;;4928107;29;20054;-69
2022/04/29 11:09:43;;;;;;;5.95;2.80;;;;;;;;;;4946886;28;20039;-69
2022/04/29 11:12:35;;;;;;;5.00;2.50;;;;;;;;;;4946962;29;20049;-69
2022/04/29 11:15:23;;;;;;;4.95;3.15;;;;;;;;;;4945621;29;20090;-69
2022/04/29 11:18:16;;;;;;;3.22;2.83;;;;;;;;;;4945545;28;20043;-69
2022/04/29 11:20:45;;;;;;;5.68;3.20;;;;;;;;;;4945537;29;20043;-69
2022/04/29 11:25:57;;;;;;;4.10;3.08;;;;;;;;;;4946209;29;20043;-69
2022/04/29 11:28:40;;;;;;;5.00;3.03;;;;;;;;;;4927475;29;20039;-69
2022/04/29 11:31:35;;;;;;;6.07;3.60;;;;;;;;;;4930235;28;20046;-69
2022/04/29 11:34:08;;;;;;;5.20;2.65;;;;;;;;;;4926453;29;20039;-69
2022/04/29 11:36:34;;;;;;;3.10;2.80;;;;;;;;;;4943182;29;20045;-69
2022/04/29 11:39:00;;;;;;;3.45;2.58;;;;;;;;;;4942280;28;20038;-69
2022/04/29 11:41:27;;;;;;;5.75;2.85;;;;;;;;;;4944416;29;20043;-69
2022/04/29 11:43:53;;;;;;;3.30;2.85;;;;;;;;;;4943407;29;20743;-69
2022/04/29 11:46:20;;;;;;;5.20;2.58;;;;;;;;;;4943847;29;21103;-69
2022/04/29 11:49:13;;;;;;;2.50;2.28;;;;;;;;;;4925665;29;20034;-69
2022/04/29 11:51:38;;;;;;;2.65;2.13;;;;;;;;;;4941435;29;20062;-69
2022/04/29 11:54:04;;;;;;;4.75;2.30;;;;;;;;;;4944643;29;20070;-69
2022/04/29 11:56:35;;;;;;;4.38;2.13;;;;;;;;;;4944558;29;20043;-68
2022/04/29 11:59:06;;;;;;;7.90;2.25;;;;;;;;;;4926745;29;20035;-69
2022/04/29 12:01:31;;;;;;;4.33;2.50;;;;;;;;;;4942917;29;20126;-69
2022/04/29 12:03:57;;;;;;;2.92;1.98;;;;;;;;;;4943881;29;20049;-69
2022/04/29 12:06:23;;;;;;;3.88;2.00;;;;;;;;;;4943482;28;20093;-68
2022/04/29 12:08:49;;;;;;;3.80;2.50;;;;;;;;;;4943419;28;20046;-69
2022/04/29 12:11:23;;;;;;;3.33;2.20;;;;;;;;;;4926473;29;20039;-69
2022/04/29 12:13:49;;;;;;;2.78;2.00;;;;;;;;;;4943884;29;20074;-68
2022/04/29 12:16:15;;;;;;;3.88;2.60;;;;;;;;;;4942635;29;20135;-70
2022/04/29 12:18:43;;;;;;;4.95;2.45;;;;;;;;;;4943516;28;20050;-69
2022/04/29 12:21:09;;;;;;;4.07;2.20;;;;;;;;;;4943694;29;20035;-69
2022/04/29 12:23:37;;;;;;;3.40;2.45;;;;;;;;;;4925551;29;20031;-69
2022/04/29 12:26:04;;;;;;;3.17;2.60;;;;;;;;;;4927661;29;20036;-69
2022/04/29 12:28:31;;;;;;;4.10;2.55;;;;;;;;;;4923911;29;20580;-71
2022/04/29 12:36:48;;;;;;;2.30;2.05;;;;;;;;;;4944971;29;20718;-71
2022/04/29 12:39:16;;;;;;;4.00;2.30;;;;;;;;;;4943942;28;20066;-75
2022/04/29 12:41:42;;;;;;;8.20;2.70;;;;;;;;;;4945282;29;20039;-72
2022/04/29 12:44:10;;;;;;;3.92;2.83;;;;;;;;;;4942723;29;20758;-73
2022/04/29 12:46:35;;;;;;;4.82;3.22;;;;;;;;;;4941491;29;20086;-72
2022/04/29 12:49:02;;;;;;;3.45;2.70;;;;;;;;;;4943335;28;20487;-73
2022/04/29 12:51:31;;;;;;;4.00;2.83;;;;;;;;;;4943376;29;20090;-73
2022/04/29 12:53:58;;;;;;;4.00;3.28;;;;;;;;;;4943230;29;20053;-73
2022/04/29 12:56:24;;;;;;;6.45;2.80;;;;;;;;;;4942494;28;20062;-73
2022/04/29 12:58:49;;;;;;;5.28;3.13;;;;;;;;;;4942225;28;20069;-73
2022/04/29 13:01:14;;;;;;;3.63;2.90;;;;;;;;;;4943029;29;20067;-73
2022/04/29 13:03:52;;;;;;;4.93;2.80;;;;;;;;;;4925620;29;20514;-73
2022/04/29 13:06:45;;;;;;;3.97;2.30;;;;;;;;;;4941524;29;20031;-73
2022/04/29 13:09:11;;;;;;;4.82;2.55;;;;;;;;;;4942323;28;20412;-72
2022/04/29 13:11:37;;;;;;;3.45;2.85;;;;;;;;;;4941442;29;20039;-73
2022/04/29 13:14:12;;;;;;;3.00;2.60;;;;;;;;;;4909545;29;20039;-73
2022/04/29 13:16:39;;;;;;;3.97;3.00;;;;;;;;;;4940273;28;20089;-72
2022/04/29 13:19:04;;;;;;;3.72;2.95;;;;;;;;;;4940455;28;20404;-73
2022/04/29 13:21:30;;;;;;;4.80;3.05;;;;;;;;;;4941953;29;20038;-72
2022/04/29 13:23:58;;;;;;;5.05;3.72;;;;;;;;;;4924591;29;20123;-72
2022/04/29 13:26:35;;;;;;;4.10;3.28;;;;;;;;;;4924213;29;20027;-74
2022/04/29 13:29:00;;;;;;;3.88;3.08;;;;;;;;;;4941206;28;20049;-73
2022/04/29 13:31:26;;;;;;;6.25;4.55;;;;;;;;;;4941935;29;20035;-73
2022/04/29 13:33:52;;;;;;;3.60;3.10;;;;;;;;;;4925486;29;20062;-72
2022/04/29 13:36:17;;;;;;;7.28;3.85;;;;;;;;;;4941323;29;20031;-72
2022/04/29 13:38:43;;;;;;;8.82;4.28;;;;;;;;;;4942094;28;20039;-72
2022/04/29 13:41:10;;;;;;;3.92;3.40;;;;;;;;;;4925155;29;20035;-72
2022/04/29 13:43:36;;;;;;;8.45;4.15;;;;;;;;;;4942026;29;20046;-71
2022/04/29 13:46:05;;;;;;;4.18;3.60;;;;;;;;;;4940545;29;20046;-72
2022/04/29 13:48:31;;;;;;;6.53;3.65;;;;;;;;;;4941080;28;20495;-72
2022/04/29 13:50:56;;;;;;;6.18;4.03;;;;;;;;;;4940126;29;20043;-73
2022/04/29 13:53:22;;;;;;;4.90;3.60;;;;;;;;;;4942095;29;20061;-73
2022/04/29 13:55:52;;;;;;;5.60;3.90;;;;;;;;;;4940990;29;20110;-72
2022/04/29 13:58:19;;;;;;;3.80;3.40;;;;;;;;;;4942044;28;20735;-73
2022/04/29 14:00:47;;;;;;;5.38;3.72;;;;;;;;;;4939747;29;20636;-73
2022/04/29 14:03:20;;;;;;;3.72;2.83;;;;;;;;;;4938969;29;20038;-71
2022/04/29 14:05:45;;;;;;;4.97;3.58;;;;;;;;;;4940823;29;20151;-74
2022/04/29 14:08:11;;;;;;;5.07;3.38;;;;;;;;;;4939305;28;20113;-72
2022/04/29 14:10:37;;;;;;;3.65;3.28;;;;;;;;;;4941389;29;20264;-72
2022/04/29 14:13:05;;;;;;;3.92;3.30;;;;;;;;;;4942246;29;20047;-72
2022/04/29 14:15:31;;;;;;;7.07;3.67;;;;;;;;;;4941945;29;20571;-73
2022/04/29 14:17:56;;;;;;;6.18;3.80;;;;;;;;;;4942635;28;20230;-72
2022/04/29 14:20:23;;;;;;;4.80;3.50;;;;;;;;;;4942116;29;20057;-72
2022/04/29 14:22:49;;;;;;;3.95;3.30;;;;;;;;;;4942963;29;20047;-72
2022/04/29 14:25:15;;;;;;;4.40;3.20;;;;;;;;;;4942099;29;20031;-72
2022/04/29 14:27:42;;;;;;;3.70;2.88;;;;;;;;;;4941943;28;20050;-72
2022/04/29 14:30:09;;;;;;;4.05;2.60;;;;;;;;;;4942094;28;20631;-72
2022/04/29 14:32:35;;;;;;;4.68;3.20;;;;;;;;;;4943012;29;20046;-73
2022/04/29 14:35:05;;;;;;;7.18;3.10;;;;;;;;;;4941645;29;20507;-74
2022/04/29 14:37:31;;;;;;;4.13;3.30;;;;;;;;;;4924804;28;20054;-73
2022/04/29 14:40:00;;;;;;;3.00;2.70;;;;;;;;;;4942233;29;20043;-72
2022/04/29 14:42:26;;;;;;;9.57;3.10;;;;;;;;;;4942727;29;20047;-74
2022/04/29 14:44:52;;;;;;;3.05;2.75;;;;;;;;;;4925823;29;21134;-73
2022/04/29 14:47:17;;;;;;;4.15;3.00;;;;;;;;;;4941589;28;20079;-73
2022/04/29 14:49:42;;;;;;;8.60;3.85;;;;;;;;;;4942000;29;20050;-74
2022/04/29 14:52:09;;;;;;;3.92;3.10;;;;;;;;;;4943165;29;20039;-72
2022/04/29 14:54:36;;;;;;;4.30;3.08;;;;;;;;;;4942218;29;20035;-72
2022/04/29 14:57:03;;;;;;;5.20;3.20;;;;;;;;;;4923561;29;20051;-74
2022/04/29 14:59:29;;;;;;;7.32;3.40;;;;;;;;;;4941663;28;20054;-72
2022/04/29 15:01:55;;;;;;;4.05;2.90;;;;;;;;;;4941570;29;20457;-72
2022/04/29 15:04:20;;;;;;;5.15;3.00;;;;;;;;;;4942096;29;20038;-75
2022/04/29 15:06:45;;;;;;;4.13;3.10;;;;;;;;;;4942492;29;20086;-72
2022/04/29 15:17:24;;;;;;;3.55;2.90;;;;;;;;;;4942159;28;20913;-73
2022/04/29 15:19:51;;;;;;;4.65;2.95;;;;;;;;;;4924220;29;20039;-73
2022/04/29 15:22:22;;;;;;;3.67;2.88;;;;;;;;;;4942848;29;20098;-72
2022/04/29 15:24:48;;;;;;;3.83;2.90;;;;;;;;;;4943050;29;20158;-72
2022/04/29 15:27:14;;;;;;;4.00;3.28;;;;;;;;;;4942249;28;20507;-72
2022/04/29 15:29:40;;;;;;;3.45;2.97;;;;;;;;;;4941571;29;20028;-72
2022/04/29 15:32:06;;;;;;;3.25;2.95;;;;;;;;;;4942206;29;20473;-72
2022/04/29 15:34:32;;;;;;;5.18;2.85;;;;;;;;;;4942551;29;20036;-72
2022/04/29 15:37:00;;;;;;;5.10;3.08;;;;;;;;;;4942965;29;20051;-71
2022/04/29 15:39:26;;;;;;;8.52;3.30;;;;;;;;;;4941041;28;20035;-73
2022/04/29 15:41:52;;;;;;;8.43;3.05;;;;;;;;;;4941338;28;20043;-72
2022/04/29 15:44:17;;;;;;;5.13;3.17;;;;;;;;;;4945691;29;20058;-72
2022/04/29 15:46:43;;;;;;;8.63;2.97;;;;;;;;;;4928853;29;20054;-72
2022/04/29 15:49:08;;;;;;;5.53;2.83;;;;;;;;;;4945031;28;20467;-72
2022/04/29 15:51:36;;;;;;;3.53;2.80;;;;;;;;;;4943249;29;20453;-71